createdAt,value
2022-12-15T00:02:00.357Z,81.19
2022-12-15T00:05:04.559Z,81.27
2022-12-15T00:08:08.751Z,81.24
2022-12-15T00:11:16.286Z,81.30
2022-12-15T00:14:20.258Z,81.46
2022-12-15T00:17:24.464Z,81.45
2022-12-15T00:20:29.014Z,81.38
2022-12-15T00:23:33.694Z,81.31
2022-12-15T00:26:37.565Z,81.42
2022-12-15T00:29:42.058Z,81.12
2022-12-15T00:32:45.910Z,81.43
2022-12-15T00:35:49.862Z,81.49
2022-12-15T00:38:44.378Z,81.60
2022-12-15T00:41:29.984Z,81.43
2022-12-15T00:44:20.719Z,81.28
2022-12-15T00:47:06.664Z,81.22
2022-12-15T00:50:11.263Z,81.66
2022-12-15T00:53:15.516Z,81.65
2022-12-15T00:56:19.607Z,81.60
2022-12-15T00:59:24.031Z,81.59
2022-12-15T01:02:28.646Z,81.56
2022-12-15T01:05:32.536Z,81.73
2022-12-15T01:08:36.395Z,81.76
2022-12-15T01:11:40.824Z,81.67
2022-12-15T01:14:45.497Z,81.58
2022-12-15T01:17:49.458Z,81.68
2022-12-15T01:20:35.068Z,81.54
2022-12-15T01:23:20.363Z,81.79
2022-12-15T01:26:06.748Z,81.49
2022-12-15T01:28:51.888Z,81.31
2022-12-15T01:31:37.405Z,81.76
2022-12-15T01:34:22.870Z,81.52
2022-12-15T01:37:08.564Z,81.57
2022-12-15T01:40:12.591Z,81.14
2022-12-15T01:42:57.841Z,81.07
2022-12-15T01:45:46.783Z,81.33
2022-12-15T01:48:40.411Z,81.14
2022-12-15T01:51:33.675Z,81.28
2022-12-15T01:54:48.719Z,80.78
2022-12-15T01:57:36.682Z,80.99
2022-12-15T02:00:22.824Z,80.83
2022-12-15T02:03:10.986Z,80.70
2022-12-15T02:05:59.736Z,80.75
2022-12-15T02:08:47.497Z,80.86
2022-12-15T02:11:36.453Z,80.91
2022-12-15T02:14:40.223Z,81.17
2022-12-15T02:17:31.755Z,81.17
2022-12-15T02:20:47.901Z,81.33
2022-12-15T02:23:48.398Z,81.61
2022-12-15T02:27:01.781Z,81.63
2022-12-15T02:30:09.484Z,81.72
2022-12-15T02:33:08.373Z,81.66
2022-12-15T02:36:20.915Z,81.77
2022-12-15T02:39:08.392Z,81.72
2022-12-15T02:41:53.824Z,81.58
2022-12-15T02:44:45.412Z,81.81
2022-12-15T02:47:58.886Z,81.99
2022-12-15T02:50:59.795Z,82.17
2022-12-15T02:54:07.017Z,81.83
2022-12-15T02:57:14.843Z,81.90
2022-12-15T03:00:09.758Z,81.79
2022-12-15T03:02:56.127Z,81.75
2022-12-15T03:05:41.660Z,81.95
2022-12-15T03:08:28.961Z,82.02
2022-12-15T03:11:14.605Z,81.59
2022-12-15T03:13:59.999Z,82.05
2022-12-15T03:16:45.271Z,81.88
2022-12-15T03:19:30.676Z,82.09
2022-12-15T03:22:16.422Z,82.12
2022-12-15T03:25:01.925Z,81.88
2022-12-15T03:27:47.576Z,81.99
2022-12-15T03:30:33.012Z,81.95
2022-12-15T03:33:18.565Z,81.88
2022-12-15T03:36:04.308Z,82.03
2022-12-15T03:38:55.037Z,82.09
2022-12-15T03:41:41.773Z,81.82
2022-12-15T03:44:29.682Z,82.14
2022-12-15T03:47:14.782Z,82.03
2022-12-15T03:50:00.288Z,81.96
2022-12-15T03:52:49.582Z,82.22
2022-12-15T03:55:35.419Z,82.03
2022-12-15T03:58:21.229Z,82.38
2022-12-15T04:01:22.948Z,82.17
2022-12-15T04:04:10.687Z,82.14
2022-12-15T04:06:56.178Z,82.02
2022-12-15T04:09:41.617Z,82.03
2022-12-15T04:12:26.875Z,81.98
2022-12-15T04:15:12.969Z,82.19
2022-12-15T04:17:58.575Z,81.95
2022-12-15T04:20:44.265Z,82.35
2022-12-15T04:23:30.168Z,82.22
2022-12-15T04:26:34.195Z,81.98
2022-12-15T04:29:38.055Z,82.29
2022-12-15T04:32:42.414Z,82.10
2022-12-15T04:35:49.917Z,82.24
2022-12-15T04:38:54.598Z,82.07
2022-12-15T04:41:58.818Z,82.13
2022-12-15T04:45:03.685Z,82.02
2022-12-15T04:48:08.285Z,82.41
2022-12-15T04:51:12.608Z,82.38
2022-12-15T04:54:16.603Z,81.89
2022-12-15T04:57:23.391Z,82.29
2022-12-15T05:00:27.635Z,82.13
2022-12-15T05:03:32.231Z,82.15
2022-12-15T05:06:36.609Z,82.37
2022-12-15T05:09:40.323Z,82.28
2022-12-15T05:12:45.177Z,82.10
2022-12-15T05:15:51.870Z,82.31
2022-12-15T05:18:56.876Z,82.21
2022-12-15T05:22:01.356Z,82.30
2022-12-15T05:25:05.026Z,82.23
2022-12-15T05:28:09.213Z,82.05
2022-12-15T05:31:13.153Z,82.22
2022-12-15T05:34:04.755Z,82.26
2022-12-15T05:36:51.306Z,82.05
2022-12-15T05:39:36.945Z,82.02
2022-12-15T05:42:22.726Z,82.30
2022-12-15T05:45:08.544Z,82.31
2022-12-15T05:47:55.107Z,82.18
2022-12-15T05:50:40.562Z,82.17
2022-12-15T05:53:26.015Z,81.92
2022-12-15T05:56:13.890Z,82.05
2022-12-15T05:58:59.408Z,82.29
2022-12-15T06:01:45.257Z,82.13
2022-12-15T06:04:30.935Z,82.01
2022-12-15T06:07:16.294Z,81.77
2022-12-15T06:10:02.365Z,81.93
2022-12-15T06:12:48.134Z,82.07
2022-12-15T06:15:34.009Z,82.26
2022-12-15T06:18:19.494Z,82.48
2022-12-15T06:21:07.612Z,82.06
2022-12-15T06:23:53.471Z,82.17
2022-12-15T06:26:40.299Z,82.15
2022-12-15T06:29:25.914Z,82.34
2022-12-15T06:32:11.292Z,82.37
2022-12-15T06:34:56.538Z,82.52
2022-12-15T06:37:42.004Z,81.91
2022-12-15T06:40:27.775Z,82.21
2022-12-15T06:43:13.414Z,82.23
2022-12-15T06:45:59.841Z,81.97
2022-12-15T06:48:46.206Z,82.02
2022-12-15T06:51:32.432Z,81.88
2022-12-15T06:54:17.588Z,82.00
2022-12-15T06:57:03.092Z,82.37
2022-12-15T06:59:48.405Z,82.23
2022-12-15T07:02:34.636Z,82.22
2022-12-15T07:05:21.599Z,81.64
2022-12-15T07:08:07.304Z,82.30
2022-12-15T07:10:53.230Z,82.05
2022-12-15T07:13:39.725Z,82.55
2022-12-15T07:16:25.443Z,82.33
2022-12-15T07:19:12.614Z,82.21
2022-12-15T07:21:58.992Z,82.26
2022-12-15T07:24:44.881Z,82.54
2022-12-15T07:27:30.282Z,82.21
2022-12-15T07:30:17.925Z,82.48
2022-12-15T07:33:04.698Z,82.32
2022-12-15T07:35:54.629Z,82.44
2022-12-15T07:38:40.012Z,82.41
2022-12-15T07:41:25.487Z,82.69
2022-12-15T07:44:10.868Z,82.53
2022-12-15T07:46:56.324Z,82.53
2022-12-15T07:49:41.876Z,82.44
2022-12-15T07:52:27.567Z,82.58
2022-12-15T07:55:13.602Z,82.38
2022-12-15T07:57:58.873Z,82.75
2022-12-15T08:00:48.782Z,82.41
2022-12-15T08:03:35.040Z,82.91
2022-12-15T08:06:21.067Z,82.69
2022-12-15T08:09:06.883Z,82.66
2022-12-15T08:11:52.380Z,82.78
2022-12-15T08:14:37.913Z,82.69
2022-12-15T08:17:23.450Z,82.72
2022-12-15T08:20:10.246Z,82.52
2022-12-15T08:22:55.824Z,82.42
2022-12-15T08:25:42.822Z,82.71
2022-12-15T08:28:28.152Z,82.48
2022-12-15T08:31:20.050Z,82.39
2022-12-15T08:34:06.144Z,82.37
2022-12-15T08:36:51.616Z,82.18
2022-12-15T08:39:37.182Z,82.32
2022-12-15T08:42:23.045Z,82.25
2022-12-15T08:45:09.122Z,82.37
2022-12-15T08:47:56.048Z,82.13
2022-12-15T08:50:45.752Z,82.14
2022-12-15T08:53:32.211Z,82.09
2022-12-15T08:56:20.301Z,82.12
2022-12-15T08:59:05.819Z,82.11
2022-12-15T09:01:51.675Z,82.43
2022-12-15T09:04:38.052Z,81.97
2022-12-15T09:07:23.435Z,82.17
2022-12-15T09:10:09.180Z,82.18
2022-12-15T09:12:54.697Z,82.06
2022-12-15T09:16:08.152Z,81.91
2022-12-15T09:18:50.121Z,82.00
2022-12-15T09:21:35.693Z,81.85
2022-12-15T09:24:30.597Z,82.12
2022-12-15T09:27:19.943Z,82.06
2022-12-15T09:30:06.650Z,81.64
2022-12-15T09:32:52.307Z,82.02
2022-12-15T09:35:37.748Z,81.85
2022-12-15T09:38:23.473Z,81.81
2022-12-15T09:41:23.570Z,81.97
2022-12-15T09:44:20.419Z,81.81
2022-12-15T09:47:30.448Z,81.86
2022-12-15T09:50:19.563Z,81.94
2022-12-15T09:53:45.109Z,81.85
2022-12-15T09:56:30.012Z,81.60
2022-12-15T09:59:34.036Z,81.78
2022-12-15T10:02:38.701Z,81.86
2022-12-15T10:06:05.961Z,81.34
2022-12-15T10:09:04.409Z,81.49
2022-12-15T10:11:59.015Z,81.49
2022-12-15T10:14:51.396Z,81.03
2022-12-15T10:17:52.858Z,81.17
2022-12-15T10:20:38.791Z,81.37
2022-12-15T10:23:25.510Z,81.38
2022-12-15T10:26:11.827Z,81.11
2022-12-15T10:29:10.282Z,80.92
2022-12-15T10:32:05.548Z,81.11
2022-12-15T10:34:50.919Z,80.67
2022-12-15T10:37:36.736Z,80.77
2022-12-15T10:40:50.054Z,80.44
2022-12-15T10:43:37.795Z,80.44
2022-12-15T10:46:29.209Z,80.35
2022-12-15T10:49:14.634Z,80.12
2022-12-15T10:52:01.138Z,79.86
2022-12-15T10:54:50.234Z,79.63
2022-12-15T10:57:36.043Z,80.05
2022-12-15T11:00:30.380Z,80.03
2022-12-15T11:03:27.056Z,79.97
2022-12-15T11:06:21.669Z,79.56
2022-12-15T11:09:35.423Z,79.69
2022-12-15T11:12:43.004Z,79.48
2022-12-15T11:15:31.877Z,79.18
2022-12-15T11:18:29.260Z,79.46
2022-12-15T11:21:24.419Z,79.24
2022-12-15T11:24:35.445Z,79.44
2022-12-15T11:27:36.482Z,78.86
2022-12-15T11:30:33.129Z,79.23
2022-12-15T11:33:18.750Z,78.97
2022-12-15T11:36:26.288Z,78.47
2022-12-15T11:39:50.611Z,78.59
2022-12-15T11:42:57.782Z,78.91
2022-12-15T11:46:20.811Z,78.59
2022-12-15T11:49:26.346Z,78.40
2022-12-15T11:52:44.578Z,78.45
2022-12-15T11:55:50.954Z,78.68
2022-12-15T11:58:58.192Z,78.33
2022-12-15T12:02:38.564Z,78.59
2022-12-15T12:05:26.629Z,78.26
2022-12-15T12:08:28.061Z,78.25
2022-12-15T12:11:26.343Z,78.19
2022-12-15T12:14:41.444Z,78.66
2022-12-15T12:17:42.033Z,78.30
2022-12-15T12:20:43.514Z,78.55
2022-12-15T12:23:48.239Z,78.33
2022-12-15T12:26:53.519Z,78.38
2022-12-15T12:30:11.978Z,78.29
2022-12-15T12:33:19.241Z,78.68
2022-12-15T12:36:11.557Z,77.98
2022-12-15T12:38:58.309Z,78.21
2022-12-15T12:42:09.329Z,77.87
2022-12-15T12:44:54.530Z,78.03
2022-12-15T12:47:44.625Z,78.29
2022-12-15T12:50:32.905Z,78.11
2022-12-15T12:53:27.249Z,77.71
2022-12-15T12:56:42.223Z,77.88
2022-12-15T12:59:30.717Z,78.12
2022-12-15T13:02:22.483Z,77.95
2022-12-15T13:05:34.204Z,78.17
2022-12-15T13:08:28.714Z,78.40
2022-12-15T13:11:55.382Z,78.38
2022-12-15T13:14:40.891Z,78.50
2022-12-15T13:17:32.656Z,77.96
2022-12-15T13:20:22.904Z,78.25
2022-12-15T13:23:23.632Z,78.08
2022-12-15T13:26:09.019Z,77.90
2022-12-15T13:28:56.907Z,77.88
2022-12-15T13:31:53.300Z,78.13
2022-12-15T13:34:39.040Z,78.18
2022-12-15T13:37:49.224Z,78.00
2022-12-15T13:40:35.174Z,78.00
2022-12-15T13:43:26.897Z,77.81
2022-12-15T13:46:18.460Z,78.32
2022-12-15T13:49:22.724Z,77.99
2022-12-15T13:52:44.285Z,77.97
2022-12-15T13:55:39.003Z,77.81
2022-12-15T13:58:25.873Z,77.82
2022-12-15T14:01:32.648Z,77.76
2022-12-15T14:04:20.548Z,77.41
2022-12-15T14:07:06.653Z,77.67
2022-12-15T14:09:52.320Z,77.81
2022-12-15T14:12:40.755Z,77.92
2022-12-15T14:15:35.941Z,77.95
2022-12-15T14:18:27.938Z,78.16
2022-12-15T14:21:22.767Z,77.97
2022-12-15T14:24:38.571Z,78.07
2022-12-15T14:27:28.481Z,77.94
2022-12-15T14:30:22.652Z,77.92
2022-12-15T14:33:14.914Z,78.20
2022-12-15T14:36:02.338Z,78.03
2022-12-15T14:38:57.208Z,78.38
2022-12-15T14:41:49.004Z,78.38
2022-12-15T14:44:39.337Z,78.23
2022-12-15T14:47:35.232Z,78.37
2022-12-15T14:50:25.273Z,78.47
2022-12-15T14:53:17.952Z,78.27
2022-12-15T14:56:15.460Z,78.48
2022-12-15T14:59:17.848Z,78.26
2022-12-15T15:02:26.867Z,78.42
2022-12-15T15:05:26.495Z,78.29
2022-12-15T15:08:32.543Z,78.16
2022-12-15T15:11:32.188Z,78.55
2022-12-15T15:14:28.617Z,78.33
2022-12-15T15:17:14.657Z,78.28
2022-12-15T15:20:05.830Z,78.44
2022-12-15T15:23:12.862Z,78.50
2022-12-15T15:26:08.796Z,78.66
2022-12-15T15:28:54.758Z,78.71
2022-12-15T15:31:42.282Z,78.68
2022-12-15T15:34:28.120Z,78.67
2022-12-15T15:37:18.345Z,78.76
2022-12-15T15:40:12.306Z,78.89
2022-12-15T15:42:57.780Z,78.76
2022-12-15T15:45:43.617Z,78.88
2022-12-15T15:48:38.117Z,79.24
2022-12-15T15:51:26.040Z,78.77
2022-12-15T15:54:16.562Z,78.78
2022-12-15T15:57:02.354Z,79.21
2022-12-15T15:59:47.909Z,78.89
2022-12-15T16:02:33.476Z,79.06
2022-12-15T16:05:20.982Z,79.02
2022-12-15T16:08:07.665Z,79.13
2022-12-15T16:10:53.941Z,79.06
2022-12-15T16:13:41.627Z,79.13
2022-12-15T16:16:31.966Z,79.02
2022-12-15T16:19:18.088Z,79.14
2022-12-15T16:22:03.640Z,79.07
2022-12-15T16:24:49.193Z,79.25
2022-12-15T16:27:37.491Z,79.16
2022-12-15T16:30:26.209Z,79.30
2022-12-15T16:33:12.375Z,79.67
2022-12-15T16:35:57.961Z,79.68
2022-12-15T16:38:43.590Z,79.84
2022-12-15T16:41:29.160Z,80.17
2022-12-15T16:44:14.688Z,79.92
2022-12-15T16:47:00.455Z,79.89
2022-12-15T16:49:46.334Z,80.06
2022-12-15T16:52:32.431Z,80.13
2022-12-15T16:55:21.766Z,79.94
2022-12-15T16:58:15.179Z,80.09
2022-12-15T17:01:00.594Z,80.00
2022-12-15T17:03:46.010Z,80.07
2022-12-15T17:06:31.337Z,80.06
2022-12-15T17:09:22.299Z,80.14
2022-12-15T17:12:17.988Z,80.14
2022-12-15T17:15:15.823Z,80.35
2022-12-15T17:18:01.273Z,80.28
2022-12-15T17:20:47.169Z,80.25
2022-12-15T17:23:35.249Z,80.21
2022-12-15T17:26:31.147Z,80.85
2022-12-15T17:29:20.944Z,80.33
2022-12-15T17:32:12.571Z,80.48
2022-12-15T17:34:58.112Z,80.15
2022-12-15T17:37:44.587Z,80.39
2022-12-15T17:40:30.170Z,80.58
2022-12-15T17:43:21.188Z,80.86
2022-12-15T17:46:08.172Z,80.67
2022-12-15T17:48:53.915Z,80.65
2022-12-15T17:51:39.618Z,80.96
2022-12-15T17:54:24.837Z,81.03
2022-12-15T17:57:13.358Z,80.83
2022-12-15T17:59:59.828Z,80.85
2022-12-15T18:02:45.533Z,80.92
2022-12-15T18:05:32.031Z,80.69
2022-12-15T18:08:23.794Z,81.11
2022-12-15T18:11:15.911Z,81.04
2022-12-15T18:14:01.994Z,81.02
2022-12-15T18:16:47.843Z,81.12
2022-12-15T18:19:35.044Z,81.15
2022-12-15T18:22:22.901Z,81.32
2022-12-15T18:25:35.015Z,81.69
2022-12-15T18:28:20.967Z,81.63
2022-12-15T18:31:20.387Z,81.63
2022-12-15T18:34:12.900Z,81.58
2022-12-15T18:36:58.407Z,81.72
2022-12-15T18:39:44.421Z,81.52
2022-12-15T18:42:29.760Z,81.57
2022-12-15T18:45:26.833Z,81.50
2022-12-15T18:48:21.014Z,81.56
2022-12-15T18:51:16.594Z,81.23
2022-12-15T18:54:02.201Z,81.70
2022-12-15T18:56:48.244Z,81.63
2022-12-15T18:59:33.736Z,81.81
2022-12-15T19:02:19.373Z,81.92
2022-12-15T19:05:04.917Z,82.02
2022-12-15T19:07:50.479Z,81.90
2022-12-15T19:10:40.191Z,81.81
2022-12-15T19:13:33.335Z,82.04
2022-12-15T19:16:20.672Z,81.97
2022-12-15T19:19:24.938Z,81.95
2022-12-15T19:22:30.040Z,81.91
2022-12-15T19:25:26.503Z,82.03
2022-12-15T19:28:18.458Z,82.03
2022-12-15T19:31:04.586Z,81.99
2022-12-15T19:33:50.310Z,82.27
2022-12-15T19:36:37.048Z,82.03
2022-12-15T19:39:24.503Z,81.90
2022-12-15T19:42:24.058Z,81.99
2022-12-15T19:45:18.282Z,81.82
2022-12-15T19:48:04.228Z,81.80
2022-12-15T19:50:52.015Z,81.91
2022-12-15T19:53:38.202Z,81.75
2022-12-15T19:56:24.052Z,81.92
2022-12-15T19:59:23.567Z,81.80
2022-12-15T20:02:19.217Z,81.84
2022-12-15T20:05:05.555Z,81.79
2022-12-15T20:07:54.995Z,82.04
2022-12-15T20:10:41.002Z,82.08
2022-12-15T20:13:27.253Z,81.98
2022-12-15T20:16:17.514Z,81.91
2022-12-15T20:19:02.976Z,82.06
2022-12-15T20:21:48.803Z,82.09
2022-12-15T20:24:39.160Z,82.10
2022-12-15T20:27:25.718Z,82.18
2022-12-15T20:30:33.430Z,82.26
2022-12-15T20:33:19.780Z,82.23
2022-12-15T20:36:13.380Z,82.23
2022-12-15T20:39:00.122Z,82.27
2022-12-15T20:41:45.774Z,82.37
2022-12-15T20:44:31.395Z,82.29
2022-12-15T20:47:22.969Z,82.02
2022-12-15T20:50:42.120Z,82.23
2022-12-15T20:53:27.943Z,82.30
2022-12-15T20:56:13.975Z,82.07
2022-12-15T20:58:59.785Z,82.33
2022-12-15T21:01:46.418Z,82.30
2022-12-15T21:04:32.840Z,81.96
2022-12-15T21:07:18.937Z,82.31
2022-12-15T21:10:04.816Z,81.98
2022-12-15T21:12:51.293Z,82.03
2022-12-15T21:15:38.033Z,82.14
2022-12-15T21:21:38.365Z,82.17
2022-12-15T21:24:26.310Z,82.01
2022-12-15T21:27:13.053Z,81.83
2022-12-15T21:29:58.772Z,82.01
2022-12-15T21:32:44.147Z,81.78
2022-12-15T21:35:31.853Z,81.97
2022-12-15T21:38:36.225Z,81.95
2022-12-15T21:41:23.468Z,81.89
2022-12-15T21:44:15.853Z,81.91
2022-12-15T21:47:01.555Z,81.72
2022-12-15T21:49:47.149Z,82.13
2022-12-15T21:52:32.914Z,81.87
2022-12-15T21:55:23.711Z,81.89
2022-12-15T21:58:18.967Z,81.98
2022-12-15T22:01:04.562Z,81.82
2022-12-15T22:03:57.141Z,82.01
2022-12-15T22:06:50.506Z,81.81
2022-12-15T22:09:36.355Z,81.88
2022-12-15T22:12:24.138Z,81.80
2022-12-15T22:15:15.880Z,81.96
2022-12-15T22:18:01.667Z,81.90
2022-12-15T22:20:51.054Z,81.84
2022-12-15T22:23:36.846Z,81.93
2022-12-15T22:26:27.022Z,81.43
2022-12-15T22:29:18.524Z,81.77
2022-12-15T22:32:16.067Z,81.73
2022-12-15T22:35:01.277Z,81.91
2022-12-15T22:37:47.353Z,81.69
2022-12-15T22:40:32.761Z,81.72
2022-12-15T22:43:24.089Z,81.77
2022-12-15T22:46:13.590Z,81.84
2022-12-15T22:48:59.024Z,81.65
2022-12-15T22:51:44.912Z,81.52
2022-12-15T22:54:32.305Z,81.57
2022-12-15T22:57:22.553Z,81.48
2022-12-15T23:00:11.128Z,81.62
2022-12-15T23:05:43.683Z,81.57
2022-12-15T23:08:31.015Z,81.42
2022-12-15T23:11:35.441Z,81.49
2022-12-15T23:14:44.036Z,81.34
2022-12-15T23:17:29.355Z,81.49
2022-12-15T23:20:14.947Z,81.75
2022-12-15T23:23:01.182Z,81.38
2022-12-15T23:25:49.944Z,81.58
2022-12-15T23:28:36.818Z,81.29
2022-12-15T23:31:22.961Z,81.74
2022-12-15T23:34:08.687Z,81.73
2022-12-15T23:36:54.358Z,81.66
2022-12-15T23:39:39.828Z,81.70
2022-12-15T23:42:25.382Z,81.74
2022-12-15T23:45:11.263Z,81.62
2022-12-15T23:47:56.730Z,81.77
2022-12-15T23:50:41.996Z,81.74
2022-12-15T23:53:27.503Z,81.56
2022-12-15T23:56:16.306Z,81.69
2022-12-15T23:59:01.877Z,81.52
